sensor_id;sensor_type;location;lat;lon;timestamp;P1;durP1;ratioP1;P2;durP2;ratioP2
20476;SDS011;10397;50.948;11.092;2023-04-15T00:00:19;3.00;;;2.70;;
20476;SDS011;10397;50.948;11.092;2023-04-15T00:02:50;3.17;;;2.35;;
20476;SDS011;10397;50.948;11.092;2023-04-15T00:05:21;2.75;;;2.52;;
20476;SDS011;10397;50.948;11.092;2023-04-15T00:07:52;2.65;;;2.25;;
20476;SDS011;10397;50.948;11.092;2023-04-15T00:10:24;2.60;;;2.10;;
20476;SDS011;10397;50.948;11.092;2023-04-15T00:12:55;2.83;;;2.20;;
20476;SDS011;10397;50.948;11.092;2023-04-15T00:15:26;3.50;;;2.67;;
20476;SDS011;10397;50.948;11.092;2023-04-15T00:17:57;4.50;;;2.70;;
20476;SDS011;10397;50.948;11.092;2023-04-15T00:20:29;2.55;;;1.80;;
20476;SDS011;10397;50.948;11.092;2023-04-15T00:23:00;2.83;;;2.35;;
20476;SDS011;10397;50.948;11.092;2023-04-15T00:25:30;2.30;;;2.10;;
20476;SDS011;10397;50.948;11.092;2023-04-15T00:28:02;2.45;;;2.15;;
20476;SDS011;10397;50.948;11.092;2023-04-15T00:30:33;2.67;;;2.47;;
20476;SDS011;10397;50.948;11.092;2023-04-15T00:33:04;2.77;;;2.50;;
20476;SDS011;10397;50.948;11.092;2023-04-15T00:35:35;3.12;;;2.60;;
20476;SDS011;10397;50.948;11.092;2023-04-15T00:38:06;3.20;;;2.33;;
20476;SDS011;10397;50.948;11.092;2023-04-15T00:40:37;2.45;;;2.10;;
20476;SDS011;10397;50.948;11.092;2023-04-15T00:43:08;4.20;;;1.98;;
20476;SDS011;10397;50.948;11.092;2023-04-15T00:45:39;2.37;;;2.10;;
20476;SDS011;10397;50.948;11.092;2023-04-15T00:48:10;4.65;;;2.33;;
20476;SDS011;10397;50.948;11.092;2023-04-15T00:50:41;2.43;;;2.23;;
20476;SDS011;10397;50.948;11.092;2023-04-15T00:53:12;4.70;;;3.20;;
20476;SDS011;10397;50.948;11.092;2023-04-15T00:55:43;2.75;;;2.55;;
20476;SDS011;10397;50.948;11.092;2023-04-15T00:58:14;3.45;;;2.30;;
20476;SDS011;10397;50.948;11.092;2023-04-15T01:00:46;3.98;;;2.25;;
20476;SDS011;10397;50.948;11.092;2023-04-15T01:03:17;2.52;;;2.33;;
20476;SDS011;10397;50.948;11.092;2023-04-15T01:05:48;3.08;;;2.70;;
20476;SDS011;10397;50.948;11.092;2023-04-15T01:08:25;2.73;;;2.37;;
20476;SDS011;10397;50.948;11.092;2023-04-15T01:10:56;4.80;;;2.87;;
20476;SDS011;10397;50.948;11.092;2023-04-15T01:13:26;3.63;;;3.30;;
20476;SDS011;10397;50.948;11.092;2023-04-15T01:15:58;3.20;;;2.72;;
20476;SDS011;10397;50.948;11.092;2023-04-15T01:18:29;3.60;;;2.65;;
20476;SDS011;10397;50.948;11.092;2023-04-15T01:21:00;4.72;;;2.95;;
20476;SDS011;10397;50.948;11.092;2023-04-15T01:23:31;2.92;;;2.62;;
20476;SDS011;10397;50.948;11.092;2023-04-15T01:26:02;3.42;;;2.92;;
20476;SDS011;10397;50.948;11.092;2023-04-15T01:28:33;3.15;;;2.85;;
20476;SDS011;10397;50.948;11.092;2023-04-15T01:31:11;7.83;;;3.43;;
20476;SDS011;10397;50.948;11.092;2023-04-15T01:33:37;3.10;;;2.80;;
20476;SDS011;10397;50.948;11.092;2023-04-15T01:36:08;4.35;;;3.15;;
20476;SDS011;10397;50.948;11.092;2023-04-15T01:38:39;3.37;;;2.80;;
20476;SDS011;10397;50.948;11.092;2023-04-15T01:41:11;5.85;;;3.37;;
20476;SDS011;10397;50.948;11.092;2023-04-15T01:43:41;6.40;;;3.97;;
20476;SDS011;10397;50.948;11.092;2023-04-15T01:46:12;4.17;;;3.77;;
20476;SDS011;10397;50.948;11.092;2023-04-15T01:48:43;4.00;;;3.60;;
20476;SDS011;10397;50.948;11.092;2023-04-15T01:51:14;4.20;;;3.80;;
20476;SDS011;10397;50.948;11.092;2023-04-15T01:53:45;3.80;;;3.40;;
20476;SDS011;10397;50.948;11.092;2023-04-15T01:56:17;7.83;;;3.50;;
20476;SDS011;10397;50.948;11.092;2023-04-15T01:58:49;4.60;;;3.70;;
20476;SDS011;10397;50.948;11.092;2023-04-15T02:01:20;4.75;;;4.12;;
20476;SDS011;10397;50.948;11.092;2023-04-15T02:03:50;3.70;;;3.40;;
20476;SDS011;10397;50.948;11.092;2023-04-15T02:06:22;4.20;;;3.80;;
20476;SDS011;10397;50.948;11.092;2023-04-15T02:08:53;3.83;;;3.52;;
20476;SDS011;10397;50.948;11.092;2023-04-15T02:11:24;4.53;;;3.12;;
20476;SDS011;10397;50.948;11.092;2023-04-15T02:13:55;3.33;;;3.03;;
20476;SDS011;10397;50.948;11.092;2023-04-15T02:16:26;3.47;;;3.17;;
20476;SDS011;10397;50.948;11.092;2023-04-15T02:18:58;3.65;;;3.35;;
20476;SDS011;10397;50.948;11.092;2023-04-15T02:21:31;3.93;;;3.60;;
20476;SDS011;10397;50.948;11.092;2023-04-15T02:23:59;3.75;;;3.45;;
20476;SDS011;10397;50.948;11.092;2023-04-15T02:26:30;3.22;;;2.92;;
20476;SDS011;10397;50.948;11.092;2023-04-15T02:29:02;3.92;;;3.52;;
20476;SDS011;10397;50.948;11.092;2023-04-15T02:31:33;4.12;;;3.72;;
20476;SDS011;10397;50.948;11.092;2023-04-15T02:34:04;4.42;;;4.03;;
20476;SDS011;10397;50.948;11.092;2023-04-15T02:36:36;4.17;;;3.77;;
20476;SDS011;10397;50.948;11.092;2023-04-15T02:39:07;4.60;;;3.62;;
20476;SDS011;10397;50.948;11.092;2023-04-15T02:41:38;6.85;;;4.28;;
20476;SDS011;10397;50.948;11.092;2023-04-15T02:44:10;4.30;;;3.70;;
20476;SDS011;10397;50.948;11.092;2023-04-15T02:46:42;4.83;;;4.20;;
20476;SDS011;10397;50.948;11.092;2023-04-15T02:49:13;4.40;;;3.87;;
20476;SDS011;10397;50.948;11.092;2023-04-15T02:51:44;4.03;;;3.62;;
20476;SDS011;10397;50.948;11.092;2023-04-15T02:54:18;5.17;;;4.67;;
20476;SDS011;10397;50.948;11.092;2023-04-15T02:56:48;4.30;;;3.90;;
20476;SDS011;10397;50.948;11.092;2023-04-15T02:59:19;5.40;;;4.63;;
20476;SDS011;10397;50.948;11.092;2023-04-15T03:01:50;5.28;;;4.80;;
20476;SDS011;10397;50.948;11.092;2023-04-15T03:04:22;4.25;;;3.85;;
20476;SDS011;10397;50.948;11.092;2023-04-15T03:06:53;4.03;;;3.70;;
20476;SDS011;10397;50.948;11.092;2023-04-15T03:09:24;6.62;;;4.50;;
20476;SDS011;10397;50.948;11.092;2023-04-15T03:11:56;7.25;;;4.80;;
20476;SDS011;10397;50.948;11.092;2023-04-15T03:14:28;6.75;;;5.30;;
20476;SDS011;10397;50.948;11.092;2023-04-15T03:16:59;5.87;;;5.35;;
20476;SDS011;10397;50.948;11.092;2023-04-15T03:19:30;5.80;;;5.30;;
20476;SDS011;10397;50.948;11.092;2023-04-15T03:22:02;5.33;;;4.83;;
20476;SDS011;10397;50.948;11.092;2023-04-15T03:24:34;6.15;;;5.65;;
20476;SDS011;10397;50.948;11.092;2023-04-15T03:27:05;6.00;;;5.50;;
20476;SDS011;10397;50.948;11.092;2023-04-15T03:29:37;5.50;;;5.10;;
20476;SDS011;10397;50.948;11.092;2023-04-15T03:32:08;6.33;;;5.78;;
20476;SDS011;10397;50.948;11.092;2023-04-15T03:34:40;6.22;;;4.95;;
20476;SDS011;10397;50.948;11.092;2023-04-15T03:37:10;5.50;;;4.85;;
20476;SDS011;10397;50.948;11.092;2023-04-15T03:39:42;5.42;;;4.92;;
20476;SDS011;10397;50.948;11.092;2023-04-15T03:42:12;5.37;;;4.87;;
20476;SDS011;10397;50.948;11.092;2023-04-15T03:44:44;5.90;;;5.10;;
20476;SDS011;10397;50.948;11.092;2023-04-15T03:47:15;6.03;;;5.43;;
20476;SDS011;10397;50.948;11.092;2023-04-15T03:49:46;6.27;;;5.03;;
20476;SDS011;10397;50.948;11.092;2023-04-15T03:52:17;6.17;;;5.67;;
20476;SDS011;10397;50.948;11.092;2023-04-15T03:54:48;6.33;;;5.73;;
20476;SDS011;10397;50.948;11.092;2023-04-15T03:57:19;6.83;;;6.23;;
20476;SDS011;10397;50.948;11.092;2023-04-15T03:59:51;6.83;;;5.87;;
20476;SDS011;10397;50.948;11.092;2023-04-15T04:02:22;7.22;;;6.53;;
20476;SDS011;10397;50.948;11.092;2023-04-15T04:04:53;7.87;;;7.17;;
20476;SDS011;10397;50.948;11.092;2023-04-15T04:07:24;8.17;;;7.47;;
20476;SDS011;10397;50.948;11.092;2023-04-15T04:09:56;8.57;;;7.73;;
20476;SDS011;10397;50.948;11.092;2023-04-15T04:12:26;9.03;;;8.15;;
20476;SDS011;10397;50.948;11.092;2023-04-15T04:14:57;9.97;;;9.07;;
20476;SDS011;10397;50.948;11.092;2023-04-15T04:17:28;10.00;;;9.10;;
20476;SDS011;10397;50.948;11.092;2023-04-15T04:19:59;10.40;;;9.37;;
20476;SDS011;10397;50.948;11.092;2023-04-15T04:22:31;12.40;;;11.20;;
20476;SDS011;10397;50.948;11.092;2023-04-15T04:25:02;12.00;;;10.90;;
20476;SDS011;10397;50.948;11.092;2023-04-15T04:27:32;12.33;;;11.13;;
20476;SDS011;10397;50.948;11.092;2023-04-15T04:30:04;13.80;;;12.55;;
20476;SDS011;10397;50.948;11.092;2023-04-15T04:32:34;15.00;;;13.65;;
20476;SDS011;10397;50.948;11.092;2023-04-15T04:35:06;17.25;;;15.63;;
20476;SDS011;10397;50.948;11.092;2023-04-15T04:37:37;16.45;;;14.95;;
20476;SDS011;10397;50.948;11.092;2023-04-15T04:40:09;17.65;;;15.95;;
20476;SDS011;10397;50.948;11.092;2023-04-15T04:42:39;17.77;;;16.07;;
20476;SDS011;10397;50.948;11.092;2023-04-15T04:45:10;18.25;;;16.45;;
20476;SDS011;10397;50.948;11.092;2023-04-15T04:47:41;20.88;;;18.87;;
20476;SDS011;10397;50.948;11.092;2023-04-15T04:50:12;20.83;;;18.73;;
20476;SDS011;10397;50.948;11.092;2023-04-15T04:52:43;22.65;;;20.25;;
20476;SDS011;10397;50.948;11.092;2023-04-15T04:55:14;22.58;;;20.23;;
20476;SDS011;10397;50.948;11.092;2023-04-15T04:57:46;26.48;;;23.67;;
20476;SDS011;10397;50.948;11.092;2023-04-15T05:00:18;22.17;;;19.98;;
20476;SDS011;10397;50.948;11.092;2023-04-15T05:02:49;25.52;;;22.37;;
20476;SDS011;10397;50.948;11.092;2023-04-15T05:05:20;27.13;;;23.87;;
20476;SDS011;10397;50.948;11.092;2023-04-15T05:07:52;25.95;;;23.12;;
20476;SDS011;10397;50.948;11.092;2023-04-15T05:10:23;24.10;;;21.52;;
20476;SDS011;10397;50.948;11.092;2023-04-15T05:12:54;23.85;;;20.62;;
20476;SDS011;10397;50.948;11.092;2023-04-15T05:15:25;22.97;;;20.43;;
20476;SDS011;10397;50.948;11.092;2023-04-15T05:17:57;23.98;;;19.75;;
20476;SDS011;10397;50.948;11.092;2023-04-15T05:20:28;21.15;;;18.75;;
20476;SDS011;10397;50.948;11.092;2023-04-15T05:23:00;20.05;;;17.92;;
20476;SDS011;10397;50.948;11.092;2023-04-15T05:25:31;16.93;;;15.32;;
20476;SDS011;10397;50.948;11.092;2023-04-15T05:28:02;17.30;;;15.58;;
20476;SDS011;10397;50.948;11.092;2023-04-15T05:30:33;18.37;;;16.40;;
20476;SDS011;10397;50.948;11.092;2023-04-15T05:33:04;16.07;;;14.58;;
20476;SDS011;10397;50.948;11.092;2023-04-15T05:35:36;15.53;;;13.93;;
20476;SDS011;10397;50.948;11.092;2023-04-15T05:38:07;14.38;;;12.98;;
20476;SDS011;10397;50.948;11.092;2023-04-15T05:40:38;15.05;;;13.45;;
20476;SDS011;10397;50.948;11.092;2023-04-15T05:43:09;12.83;;;11.23;;
20476;SDS011;10397;50.948;11.092;2023-04-15T05:45:41;13.50;;;12.17;;
20476;SDS011;10397;50.948;11.092;2023-04-15T05:48:12;12.87;;;11.67;;
20476;SDS011;10397;50.948;11.092;2023-04-15T05:50:43;10.47;;;9.47;;
20476;SDS011;10397;50.948;11.092;2023-04-15T05:53:14;11.38;;;10.25;;
20476;SDS011;10397;50.948;11.092;2023-04-15T05:55:46;11.80;;;10.70;;
20476;SDS011;10397;50.948;11.092;2023-04-15T05:58:17;10.58;;;9.58;;
20476;SDS011;10397;50.948;11.092;2023-04-15T06:00:49;10.45;;;9.55;;
20476;SDS011;10397;50.948;11.092;2023-04-15T06:03:20;10.08;;;9.00;;
20476;SDS011;10397;50.948;11.092;2023-04-15T06:05:51;8.80;;;8.03;;
20476;SDS011;10397;50.948;11.092;2023-04-15T06:08:22;9.90;;;8.00;;
20476;SDS011;10397;50.948;11.092;2023-04-15T06:10:53;8.70;;;7.90;;
20476;SDS011;10397;50.948;11.092;2023-04-15T06:13:24;8.93;;;8.08;;
20476;SDS011;10397;50.948;11.092;2023-04-15T06:15:56;8.03;;;7.22;;
20476;SDS011;10397;50.948;11.092;2023-04-15T06:18:27;8.45;;;7.65;;
20476;SDS011;10397;50.948;11.092;2023-04-15T06:20:59;7.93;;;7.23;;
20476;SDS011;10397;50.948;11.092;2023-04-15T06:23:32;7.25;;;6.60;;
20476;SDS011;10397;50.948;11.092;2023-04-15T06:26:01;6.78;;;6.17;;
20476;SDS011;10397;50.948;11.092;2023-04-15T06:28:32;7.50;;;6.50;;
20476;SDS011;10397;50.948;11.092;2023-04-15T06:31:03;6.53;;;6.00;;
20476;SDS011;10397;50.948;11.092;2023-04-15T06:33:48;6.53;;;5.77;;
20476;SDS011;10397;50.948;11.092;2023-04-15T06:36:19;6.27;;;5.77;;
20476;SDS011;10397;50.948;11.092;2023-04-15T06:38:50;6.63;;;6.03;;
20476;SDS011;10397;50.948;11.092;2023-04-15T06:41:21;6.17;;;5.60;;
20476;SDS011;10397;50.948;11.092;2023-04-15T06:43:52;5.50;;;4.87;;
20476;SDS011;10397;50.948;11.092;2023-04-15T06:46:23;5.43;;;4.93;;
20476;SDS011;10397;50.948;11.092;2023-04-15T06:48:55;5.77;;;5.00;;
20476;SDS011;10397;50.948;11.092;2023-04-15T06:51:29;6.47;;;5.87;;
20476;SDS011;10397;50.948;11.092;2023-04-15T06:53:59;7.50;;;6.67;;
20476;SDS011;10397;50.948;11.092;2023-04-15T06:56:31;7.33;;;5.60;;
20476;SDS011;10397;50.948;11.092;2023-04-15T06:59:01;7.13;;;6.43;;
20476;SDS011;10397;50.948;11.092;2023-04-15T07:01:32;5.17;;;4.70;;
20476;SDS011;10397;50.948;11.092;2023-04-15T07:04:03;5.87;;;5.27;;
20476;SDS011;10397;50.948;11.092;2023-04-15T07:06:34;5.40;;;4.90;;
20476;SDS011;10397;50.948;11.092;2023-04-15T07:09:05;6.47;;;5.87;;
20476;SDS011;10397;50.948;11.092;2023-04-15T07:11:36;6.83;;;5.43;;
20476;SDS011;10397;50.948;11.092;2023-04-15T07:14:07;6.90;;;5.57;;
20476;SDS011;10397;50.948;11.092;2023-04-15T07:16:38;7.33;;;5.23;;
20476;SDS011;10397;50.948;11.092;2023-04-15T07:19:09;5.10;;;4.60;;
20476;SDS011;10397;50.948;11.092;2023-04-15T07:21:40;5.43;;;4.93;;
20476;SDS011;10397;50.948;11.092;2023-04-15T07:24:11;4.90;;;4.40;;
20476;SDS011;10397;50.948;11.092;2023-04-15T07:26:42;5.73;;;5.23;;
20476;SDS011;10397;50.948;11.092;2023-04-15T07:29:12;5.30;;;4.80;;
20476;SDS011;10397;50.948;11.092;2023-04-15T07:31:43;4.63;;;4.03;;
20476;SDS011;10397;50.948;11.092;2023-04-15T07:34:14;5.07;;;4.57;;
20476;SDS011;10397;50.948;11.092;2023-04-15T07:36:45;4.93;;;4.43;;
20476;SDS011;10397;50.948;11.092;2023-04-15T07:39:16;4.63;;;4.13;;
20476;SDS011;10397;50.948;11.092;2023-04-15T07:41:47;5.00;;;4.50;;
20476;SDS011;10397;50.948;11.092;2023-04-15T07:44:17;5.53;;;4.43;;
20476;SDS011;10397;50.948;11.092;2023-04-15T07:46:48;4.63;;;3.80;;
20476;SDS011;10397;50.948;11.092;2023-04-15T07:49:19;3.93;;;3.53;;
20476;SDS011;10397;50.948;11.092;2023-04-15T07:51:50;4.70;;;3.90;;
20476;SDS011;10397;50.948;11.092;2023-04-15T07:54:20;5.63;;;5.03;;
20476;SDS011;10397;50.948;11.092;2023-04-15T07:56:51;4.43;;;4.03;;
20476;SDS011;10397;50.948;11.092;2023-04-15T07:59:22;4.93;;;4.53;;
20476;SDS011;10397;50.948;11.092;2023-04-15T08:01:52;5.80;;;5.13;;
20476;SDS011;10397;50.948;11.092;2023-04-15T08:04:23;4.53;;;3.87;;
20476;SDS011;10397;50.948;11.092;2023-04-15T08:06:54;5.23;;;4.73;;
20476;SDS011;10397;50.948;11.092;2023-04-15T08:09:25;8.07;;;5.10;;
20476;SDS011;10397;50.948;11.092;2023-04-15T08:11:56;4.40;;;4.00;;
20476;SDS011;10397;50.948;11.092;2023-04-15T08:14:27;4.60;;;4.00;;
20476;SDS011;10397;50.948;11.092;2023-04-15T08:16:57;6.67;;;3.67;;
20476;SDS011;10397;50.948;11.092;2023-04-15T08:19:28;4.50;;;4.10;;
20476;SDS011;10397;50.948;11.092;2023-04-15T08:21:58;4.17;;;3.77;;
20476;SDS011;10397;50.948;11.092;2023-04-15T08:24:30;5.17;;;4.67;;
20476;SDS011;10397;50.948;11.092;2023-04-15T08:26:59;4.17;;;3.70;;
20476;SDS011;10397;50.948;11.092;2023-04-15T08:29:30;4.60;;;4.17;;
20476;SDS011;10397;50.948;11.092;2023-04-15T08:32:03;4.50;;;3.80;;
20476;SDS011;10397;50.948;11.092;2023-04-15T08:34:33;4.90;;;4.33;;
20476;SDS011;10397;50.948;11.092;2023-04-15T08:37:04;4.40;;;3.50;;
20476;SDS011;10397;50.948;11.092;2023-04-15T08:39:35;4.50;;;4.10;;
20476;SDS011;10397;50.948;11.092;2023-04-15T08:42:09;3.93;;;3.53;;
20476;SDS011;10397;50.948;11.092;2023-04-15T08:44:37;4.23;;;3.20;;
20476;SDS011;10397;50.948;11.092;2023-04-15T08:47:07;4.67;;;3.73;;
20476;SDS011;10397;50.948;11.092;2023-04-15T08:49:38;3.83;;;3.33;;
20476;SDS011;10397;50.948;11.092;2023-04-15T08:52:08;4.53;;;3.23;;
20476;SDS011;10397;50.948;11.092;2023-04-15T08:54:39;3.77;;;2.87;;
20476;SDS011;10397;50.948;11.092;2023-04-15T08:57:09;3.53;;;3.23;;
20476;SDS011;10397;50.948;11.092;2023-04-15T08:59:40;2.90;;;2.30;;
20476;SDS011;10397;50.948;11.092;2023-04-15T09:02:11;3.00;;;2.70;;
20476;SDS011;10397;50.948;11.092;2023-04-15T09:04:42;3.27;;;2.87;;
20476;SDS011;10397;50.948;11.092;2023-04-15T09:07:12;3.23;;;2.83;;
20476;SDS011;10397;50.948;11.092;2023-04-15T09:09:43;3.47;;;3.17;;
20476;SDS011;10397;50.948;11.092;2023-04-15T09:12:15;4.50;;;2.90;;
20476;SDS011;10397;50.948;11.092;2023-04-15T09:14:45;3.40;;;2.70;;
20476;SDS011;10397;50.948;11.092;2023-04-15T09:17:19;4.77;;;2.37;;
20476;SDS011;10397;50.948;11.092;2023-04-15T09:19:50;4.20;;;2.70;;
20476;SDS011;10397;50.948;11.092;2023-04-15T09:22:19;3.40;;;2.73;;
20476;SDS011;10397;50.948;11.092;2023-04-15T09:24:50;4.23;;;3.10;;
20476;SDS011;10397;50.948;11.092;2023-04-15T09:27:21;3.80;;;3.30;;
20476;SDS011;10397;50.948;11.092;2023-04-15T09:29:52;3.67;;;3.37;;
20476;SDS011;10397;50.948;11.092;2023-04-15T09:32:22;4.33;;;3.70;;
20476;SDS011;10397;50.948;11.092;2023-04-15T09:34:53;2.87;;;2.57;;
20476;SDS011;10397;50.948;11.092;2023-04-15T09:37:43;3.30;;;2.47;;
20476;SDS011;10397;50.948;11.092;2023-04-15T09:40:03;4.13;;;3.40;;
20476;SDS011;10397;50.948;11.092;2023-04-15T09:42:33;3.30;;;2.83;;
20476;SDS011;10397;50.948;11.092;2023-04-15T09:45:07;4.00;;;3.17;;
20476;SDS011;10397;50.948;11.092;2023-04-15T09:47:37;4.23;;;3.13;;
20476;SDS011;10397;50.948;11.092;2023-04-15T09:50:15;5.27;;;4.03;;
20476;SDS011;10397;50.948;11.092;2023-04-15T09:52:58;5.47;;;4.97;;
20476;SDS011;10397;50.948;11.092;2023-04-15T09:55:25;4.67;;;4.27;;
20476;SDS011;10397;50.948;11.092;2023-04-15T10:00:34;3.43;;;3.13;;
20476;SDS011;10397;50.948;11.092;2023-04-15T10:03:07;3.07;;;2.60;;
20476;SDS011;10397;50.948;11.092;2023-04-15T10:05:38;3.70;;;3.30;;
20476;SDS011;10397;50.948;11.092;2023-04-15T10:08:09;4.23;;;3.83;;
20476;SDS011;10397;50.948;11.092;2023-04-15T10:10:41;3.33;;;3.03;;
20476;SDS011;10397;50.948;11.092;2023-04-15T10:13:17;3.37;;;3.07;;
20476;SDS011;10397;50.948;11.092;2023-04-15T10:15:49;4.03;;;3.03;;
20476;SDS011;10397;50.948;11.092;2023-04-15T10:18:29;3.87;;;3.03;;
20476;SDS011;10397;50.948;11.092;2023-04-15T10:21:06;2.83;;;2.47;;
20476;SDS011;10397;50.948;11.092;2023-04-15T10:23:37;3.00;;;2.70;;
20476;SDS011;10397;50.948;11.092;2023-04-15T10:26:17;3.43;;;3.13;;
20476;SDS011;10397;50.948;11.092;2023-04-15T10:28:54;4.10;;;3.70;;
20476;SDS011;10397;50.948;11.092;2023-04-15T10:31:28;4.57;;;4.17;;
20476;SDS011;10397;50.948;11.092;2023-04-15T10:34:01;4.40;;;4.00;;
20476;SDS011;10397;50.948;11.092;2023-04-15T10:36:33;3.33;;;3.03;;
20476;SDS011;10397;50.948;11.092;2023-04-15T10:42:11;3.83;;;2.97;;
20476;SDS011;10397;50.948;11.092;2023-04-15T10:44:49;3.13;;;2.83;;
20476;SDS011;10397;50.948;11.092;2023-04-15T10:47:30;3.60;;;3.30;;
20476;SDS011;10397;50.948;11.092;2023-04-15T10:49:57;3.40;;;3.10;;
20476;SDS011;10397;50.948;11.092;2023-04-15T10:52:27;2.67;;;2.13;;
20476;SDS011;10397;50.948;11.092;2023-04-15T10:57:44;3.43;;;3.10;;
20476;SDS011;10397;50.948;11.092;2023-04-15T11:00:15;4.60;;;4.20;;
20476;SDS011;10397;50.948;11.092;2023-04-15T11:02:51;3.23;;;2.93;;
20476;SDS011;10397;50.948;11.092;2023-04-15T11:08:19;3.93;;;3.53;;
20476;SDS011;10397;50.948;11.092;2023-04-15T11:10:56;3.83;;;3.43;;
20476;SDS011;10397;50.948;11.092;2023-04-15T11:13:31;3.53;;;3.23;;
20476;SDS011;10397;50.948;11.092;2023-04-15T11:16:05;3.63;;;3.33;;
20476;SDS011;10397;50.948;11.092;2023-04-15T11:18:52;3.43;;;3.10;;
20476;SDS011;10397;50.948;11.092;2023-04-15T11:21:27;2.90;;;2.57;;
20476;SDS011;10397;50.948;11.092;2023-04-15T11:24:03;3.00;;;2.70;;
20476;SDS011;10397;50.948;11.092;2023-04-15T11:26:42;3.27;;;2.67;;
20476;SDS011;10397;50.948;11.092;2023-04-15T11:29:18;3.97;;;2.87;;
20476;SDS011;10397;50.948;11.092;2023-04-15T11:32:03;2.97;;;2.67;;
20476;SDS011;10397;50.948;11.092;2023-04-15T11:34:29;3.77;;;2.00;;
20476;SDS011;10397;50.948;11.092;2023-04-15T11:37:04;3.97;;;2.87;;
20476;SDS011;10397;50.948;11.092;2023-04-15T11:39:37;2.90;;;2.60;;
20476;SDS011;10397;50.948;11.092;2023-04-15T11:42:22;2.97;;;2.30;;
20476;SDS011;10397;50.948;11.092;2023-04-15T11:47:44;2.33;;;2.03;;
20476;SDS011;10397;50.948;11.092;2023-04-15T11:50:22;2.60;;;2.30;;
20476;SDS011;10397;50.948;11.092;2023-04-15T11:52:57;3.60;;;3.10;;
20476;SDS011;10397;50.948;11.092;2023-04-15T11:55:56;3.20;;;2.90;;
20476;SDS011;10397;50.948;11.092;2023-04-15T11:58:15;2.97;;;2.17;;
20476;SDS011;10397;50.948;11.092;2023-04-15T12:00:52;2.63;;;2.43;;
20476;SDS011;10397;50.948;11.092;2023-04-15T12:03:36;2.93;;;2.33;;
20476;SDS011;10397;50.948;11.092;2023-04-15T12:06:12;3.00;;;2.27;;
20476;SDS011;10397;50.948;11.092;2023-04-15T12:08:58;2.37;;;2.07;;
20476;SDS011;10397;50.948;11.092;2023-04-15T12:11:45;4.43;;;3.07;;
20476;SDS011;10397;50.948;11.092;2023-04-15T12:16:59;2.57;;;2.00;;
20476;SDS011;10397;50.948;11.092;2023-04-15T12:19:36;10.57;;;8.03;;
20476;SDS011;10397;50.948;11.092;2023-04-15T12:24:53;3.33;;;2.33;;
20476;SDS011;10397;50.948;11.092;2023-04-15T12:30:02;2.90;;;2.10;;
20476;SDS011;10397;50.948;11.092;2023-04-15T12:32:24;2.33;;;1.97;;
20476;SDS011;10397;50.948;11.092;2023-04-15T12:34:57;2.20;;;1.87;;
20476;SDS011;10397;50.948;11.092;2023-04-15T12:37:28;2.90;;;2.37;;
20476;SDS011;10397;50.948;11.092;2023-04-15T12:40:08;2.73;;;1.73;;
20476;SDS011;10397;50.948;11.092;2023-04-15T12:42:36;1.63;;;1.33;;
20476;SDS011;10397;50.948;11.092;2023-04-15T12:45:08;2.27;;;1.90;;
20476;SDS011;10397;50.948;11.092;2023-04-15T12:47:44;2.93;;;2.10;;
20476;SDS011;10397;50.948;11.092;2023-04-15T12:50:12;2.40;;;1.80;;
20476;SDS011;10397;50.948;11.092;2023-04-15T12:52:41;2.47;;;2.07;;
20476;SDS011;10397;50.948;11.092;2023-04-15T12:55:12;2.57;;;1.80;;
20476;SDS011;10397;50.948;11.092;2023-04-15T12:57:45;2.53;;;1.83;;
20476;SDS011;10397;50.948;11.092;2023-04-15T13:00:27;5.37;;;3.33;;
20476;SDS011;10397;50.948;11.092;2023-04-15T13:02:56;3.43;;;2.53;;
20476;SDS011;10397;50.948;11.092;2023-04-15T13:08:54;2.10;;;1.83;;
20476;SDS011;10397;50.948;11.092;2023-04-15T13:11:26;2.13;;;1.80;;
20476;SDS011;10397;50.948;11.092;2023-04-15T13:14:07;3.03;;;2.10;;
20476;SDS011;10397;50.948;11.092;2023-04-15T13:16:35;2.33;;;2.00;;
20476;SDS011;10397;50.948;11.092;2023-04-15T13:19:08;2.47;;;2.00;;
20476;SDS011;10397;50.948;11.092;2023-04-15T13:21:42;2.50;;;2.00;;
20476;SDS011;10397;50.948;11.092;2023-04-15T13:24:12;3.03;;;2.13;;
20476;SDS011;10397;50.948;11.092;2023-04-15T13:26:50;2.10;;;1.90;;
20476;SDS011;10397;50.948;11.092;2023-04-15T13:29:23;2.77;;;2.20;;
20476;SDS011;10397;50.948;11.092;2023-04-15T13:31:55;2.33;;;1.83;;
20476;SDS011;10397;50.948;11.092;2023-04-15T13:34:30;2.60;;;2.27;;
20476;SDS011;10397;50.948;11.092;2023-04-15T13:37:06;4.93;;;2.00;;
20476;SDS011;10397;50.948;11.092;2023-04-15T13:39:39;4.33;;;2.57;;
20476;SDS011;10397;50.948;11.092;2023-04-15T13:42:30;3.77;;;2.17;;
20476;SDS011;10397;50.948;11.092;2023-04-15T13:45:05;2.80;;;2.40;;
20476;SDS011;10397;50.948;11.092;2023-04-15T13:47:49;2.67;;;2.47;;
20476;SDS011;10397;50.948;11.092;2023-04-15T13:50:18;2.77;;;2.40;;
20476;SDS011;10397;50.948;11.092;2023-04-15T13:52:59;3.00;;;2.30;;
20476;SDS011;10397;50.948;11.092;2023-04-15T13:55:30;2.60;;;2.00;;
20476;SDS011;10397;50.948;11.092;2023-04-15T13:58:09;3.17;;;2.63;;
20476;SDS011;10397;50.948;11.092;2023-04-15T14:00:41;3.53;;;2.70;;
20476;SDS011;10397;50.948;11.092;2023-04-15T14:03:13;2.60;;;2.23;;
20476;SDS011;10397;50.948;11.092;2023-04-15T14:05:46;3.03;;;2.53;;
20476;SDS011;10397;50.948;11.092;2023-04-15T14:08:25;3.10;;;2.43;;
20476;SDS011;10397;50.948;11.092;2023-04-15T14:10:58;2.40;;;1.77;;
20476;SDS011;10397;50.948;11.092;2023-04-15T14:13:44;2.77;;;2.23;;
20476;SDS011;10397;50.948;11.092;2023-04-15T14:16:19;3.40;;;2.20;;
20476;SDS011;10397;50.948;11.092;2023-04-15T14:18:56;3.00;;;2.70;;
20476;SDS011;10397;50.948;11.092;2023-04-15T14:21:25;3.37;;;2.97;;
20476;SDS011;10397;50.948;11.092;2023-04-15T14:24:09;4.20;;;3.57;;
20476;SDS011;10397;50.948;11.092;2023-04-15T14:26:30;2.97;;;2.67;;
20476;SDS011;10397;50.948;11.092;2023-04-15T14:29:12;4.17;;;3.77;;
20476;SDS011;10397;50.948;11.092;2023-04-15T14:31:50;4.73;;;4.33;;
20476;SDS011;10397;50.948;11.092;2023-04-15T14:34:20;4.43;;;3.40;;
20476;SDS011;10397;50.948;11.092;2023-04-15T14:36:51;5.83;;;4.50;;
20476;SDS011;10397;50.948;11.092;2023-04-15T14:39:37;6.27;;;5.63;;
20476;SDS011;10397;50.948;11.092;2023-04-15T14:42:14;5.73;;;5.23;;
20476;SDS011;10397;50.948;11.092;2023-04-15T14:44:46;5.20;;;4.70;;
20476;SDS011;10397;50.948;11.092;2023-04-15T14:47:23;5.10;;;4.60;;
20476;SDS011;10397;50.948;11.092;2023-04-15T14:49:55;5.17;;;4.60;;
20476;SDS011;10397;50.948;11.092;2023-04-15T14:52:27;6.83;;;6.17;;
20476;SDS011;10397;50.948;11.092;2023-04-15T14:55:00;4.67;;;4.20;;
20476;SDS011;10397;50.948;11.092;2023-04-15T14:57:31;6.90;;;6.20;;
20476;SDS011;10397;50.948;11.092;2023-04-15T15:00:19;6.87;;;5.70;;
20476;SDS011;10397;50.948;11.092;2023-04-15T15:02:49;7.27;;;6.57;;
20476;SDS011;10397;50.948;11.092;2023-04-15T15:05:31;7.10;;;6.33;;
20476;SDS011;10397;50.948;11.092;2023-04-15T15:08:09;6.27;;;5.67;;
20476;SDS011;10397;50.948;11.092;2023-04-15T15:10:40;7.23;;;6.50;;
20476;SDS011;10397;50.948;11.092;2023-04-15T15:16:03;6.23;;;5.63;;
20476;SDS011;10397;50.948;11.092;2023-04-15T15:18:26;8.70;;;6.90;;
20476;SDS011;10397;50.948;11.092;2023-04-15T15:20:56;5.73;;;5.13;;
20476;SDS011;10397;50.948;11.092;2023-04-15T15:23:27;5.63;;;5.10;;
20476;SDS011;10397;50.948;11.092;2023-04-15T15:25:58;7.17;;;6.47;;
20476;SDS011;10397;50.948;11.092;2023-04-15T15:28:29;7.70;;;6.80;;